Wetterdaten: Freitag, 25.03.2016
Datum Zeit Auen-Temp. Temp gefhlt Luftfeuchte Luftdruck Regen Wind Richtung Richtung Sonnenschein Taupunkt Windben
25.03.2016 00:00 -0,5 C -1,0 C 78 % 1014,4 hPa 0,0 mm 0,0 km/h (0 Bft) O-NO 67 0 min -3,9 C 0,0 km/h (0 Bft)
25.03.2016 00:05 -0,5 C -0,9 C 77 % 1014,4 hPa 0,0 mm 0,0 km/h (0 Bft) SO 135 0 min -4,0 C 0,0 km/h (0 Bft)
25.03.2016 00:10 -0,3 C -0,9 C 79 % 1014,5 hPa 0,0 mm 0,0 km/h (0 Bft) SO 135 0 min -3,5 C 4,2 km/h (1 Bft)
25.03.2016 00:15 0,0 C -0,6 C 80 % 1014,5 hPa 0,0 mm 0,6 km/h (0 Bft) W-SW 247 0 min -3,0 C 0,0 km/h (0 Bft)
25.03.2016 00:20 0,1 C -0,4 C 80 % 1014,5 hPa 0,0 mm 1,5 km/h (1 Bft) NW 315 0 min -2,9 C 0,0 km/h (0 Bft)
25.03.2016 00:25 -0,1 C -0,6 C 80 % 1014,5 hPa 0,0 mm 0,9 km/h (0 Bft) S 180 0 min -3,1 C 3,3 km/h (1 Bft)
25.03.2016 00:30 0,1 C -0,4 C 81 % 1014,6 hPa 0,0 mm 0,3 km/h (0 Bft) S-SO 157 0 min -2,8 C 3,9 km/h (1 Bft)
25.03.2016 00:35 0,2 C -0,3 C 80 % 1014,6 hPa 0,0 mm 0,3 km/h (0 Bft) SO 135 0 min -2,8 C 0,0 km/h (0 Bft)
25.03.2016 00:40 0,1 C -0,4 C 80 % 1014,6 hPa 0,0 mm 0,3 km/h (0 Bft) S-SW 202 0 min -2,9 C 0,0 km/h (0 Bft)
25.03.2016 00:45 0,2 C -0,2 C 80 % 1014,6 hPa 0,0 mm 0,6 km/h (0 Bft) SO 135 0 min -2,8 C 0,0 km/h (0 Bft)
25.03.2016 00:50 0,3 C -0,2 C 80 % 1014,5 hPa 0,0 mm 0,6 km/h (0 Bft) SO 135 0 min -2,7 C 0,0 km/h (0 Bft)
25.03.2016 00:55 0,5 C 0,0 C 79 % 1014,5 hPa 0,0 mm 0,0 km/h (0 Bft) SO 135 0 min -2,7 C 0,0 km/h (0 Bft)
25.03.2016 00:58 0,5 C 0,1 C 79 % 1014,5 hPa 0,0 mm 0,0 km/h (0 Bft) S-SO 157 0 min -2,7 C 0,0 km/h (0 Bft)
25.03.2016 01:00 0,5 C 0,1 C 79 % 1014,5 hPa 0,0 mm 0,0 km/h (0 Bft) S-SO 157 0 min -2,7 C 0,0 km/h (0 Bft)
25.03.2016 01:05 0,4 C 0,0 C 79 % 1014,5 hPa 0,0 mm 0,3 km/h (0 Bft) O-NO 67 0 min -2,8 C 0,0 km/h (0 Bft)
25.03.2016 01:10 0,1 C -0,2 C 79 % 1014,5 hPa 0,0 mm 0,3 km/h (0 Bft) O-SO 112 0 min -3,1 C 0,0 km/h (0 Bft)
25.03.2016 01:15 0,0 C -0,3 C 79 % 1014,5 hPa 0,0 mm 0,0 km/h (0 Bft) S 180 0 min -3,2 C 0,0 km/h (0 Bft)
25.03.2016 01:20 0,3 C -0,1 C 79 % 1014,5 hPa 0,0 mm 0,3 km/h (0 Bft) SO 135 0 min -2,9 C 0,0 km/h (0 Bft)
25.03.2016 01:25 0,5 C 0,1 C 77 % 1014,5 hPa 0,0 mm 0,0 km/h (0 Bft) SO 135 0 min -3,1 C 0,0 km/h (0 Bft)
25.03.2016 01:30 0,7 C 0,3 C 77 % 1014,3 hPa 0,0 mm 0,3 km/h (0 Bft) SO 135 0 min -2,9 C 0,0 km/h (0 Bft)
25.03.2016 01:35 0,5 C 0,2 C 78 % 1014,3 hPa 0,0 mm 0,3 km/h (0 Bft) O-SO 112 0 min -2,9 C 0,0 km/h (0 Bft)
25.03.2016 01:40 0,5 C 0,2 C 78 % 1014,3 hPa 0,0 mm 0,3 km/h (0 Bft) S 180 0 min -2,9 C 0,0 km/h (0 Bft)
25.03.2016 01:45 0,7 C 0,4 C 78 % 1014,3 hPa 0,0 mm 0,3 km/h (0 Bft) O-SO 112 0 min -2,7 C 0,0 km/h (0 Bft)
25.03.2016 01:50 0,7 C 0,4 C 78 % 1014,5 hPa 0,0 mm 0,3 km/h (0 Bft) S-SO 157 0 min -2,7 C 0,0 km/h (0 Bft)
25.03.2016 01:55 0,8 C 0,6 C 76 % 1014,5 hPa 0,0 mm 1,5 km/h (1 Bft) S-SW 202 0 min -2,9 C 11,3 km/h (2 Bft)
25.03.2016 02:00 0,9 C 0,6 C 77 % 1014,5 hPa 0,0 mm 1,5 km/h (1 Bft) S 180 0 min -2,7 C 3,6 km/h (1 Bft)
25.03.2016 02:05 1,1 C 0,9 C 76 % 1014,5 hPa 0,0 mm 2,4 km/h (1 Bft) SW 225 0 min -2,6 C 12,8 km/h (3 Bft)
25.03.2016 02:10 1,3 C 1,0 C 76 % 1014,5 hPa 0,0 mm 4,8 km/h (1 Bft) S-SW 202 0 min -2,5 C 11,9 km/h (2 Bft)
25.03.2016 02:15 1,6 C 1,0 C 75 % 1014,5 hPa 0,0 mm 8,9 km/h (2 Bft) S 180 0 min -2,3 C 17,0 km/h (3 Bft)
25.03.2016 02:20 1,6 C 1,0 C 75 % 1014,5 hPa 0,0 mm 9,2 km/h (2 Bft) S-SW 202 0 min -2,3 C 4,8 km/h (1 Bft)
25.03.2016 02:25 1,5 C 1,1 C 74 % 1014,5 hPa 0,0 mm 7,2 km/h (2 Bft) SW 225 0 min -2,6 C 8,0 km/h (2 Bft)
25.03.2016 02:30 1,5 C 1,2 C 74 % 1014,1 hPa 0,0 mm 6,3 km/h (2 Bft) S-SW 202 0 min -2,6 C 6,9 km/h (2 Bft)
25.03.2016 02:35 1,5 C 1,2 C 74 % 1014,1 hPa 0,0 mm 6,3 km/h (2 Bft) SW 225 0 min -2,6 C 8,0 km/h (2 Bft)
25.03.2016 02:40 1,5 C 1,2 C 74 % 1014,1 hPa 0,0 mm 6,0 km/h (2 Bft) S 180 0 min -2,6 C 4,8 km/h (1 Bft)
25.03.2016 02:45 1,5 C 1,4 C 73 % 1014,1 hPa 0,0 mm 3,9 km/h (1 Bft) W-SW 247 0 min -2,8 C 0,0 km/h (0 Bft)
25.03.2016 02:50 1,5 C 1,4 C 73 % 1014,2 hPa 0,0 mm 1,2 km/h (1 Bft) SW 225 0 min -2,8 C 0,0 km/h (0 Bft)
25.03.2016 02:55 1,2 C 1,2 C 73 % 1014,2 hPa 0,0 mm 0,0 km/h (0 Bft) O-NO 67 0 min -3,1 C 0,0 km/h (0 Bft)
25.03.2016 03:00 1,0 C 0,9 C 73 % 1014,2 hPa 0,0 mm 0,0 km/h (0 Bft) N 360 0 min -3,3 C 0,0 km/h (0 Bft)
25.03.2016 03:05 0,7 C 0,6 C 74 % 1014,2 hPa 0,0 mm 0,0 km/h (0 Bft) O-NO 67 0 min -3,4 C 0,0 km/h (0 Bft)
25.03.2016 03:10 0,7 C 0,6 C 75 % 1014,2 hPa 0,0 mm 0,0 km/h (0 Bft) O-NO 67 0 min -3,2 C 0,0 km/h (0 Bft)
25.03.2016 03:15 0,6 C 0,4 C 75 % 1014,2 hPa 0,0 mm 0,0 km/h (0 Bft) N-NO 22 0 min -3,3 C 0,0 km/h (0 Bft)
25.03.2016 03:20 0,6 C 0,4 C 75 % 1014,2 hPa 0,0 mm 0,0 km/h (0 Bft) O-NO 67 0 min -3,3 C 0,0 km/h (0 Bft)
25.03.2016 03:25 0,6 C 0,4 C 75 % 1014,2 hPa 0,0 mm 0,0 km/h (0 Bft) O-NO 67 0 min -3,3 C 0,0 km/h (0 Bft)
25.03.2016 03:30 0,6 C 0,3 C 75 % 1014,3 hPa 0,0 mm 0,0 km/h (0 Bft) O-NO 67 0 min -3,3 C 0,0 km/h (0 Bft)
25.03.2016 03:35 0,4 C 0,2 C 76 % 1014,3 hPa 0,0 mm 0,0 km/h (0 Bft) NO 45 0 min -3,3 C 0,0 km/h (0 Bft)
25.03.2016 03:40 0,4 C 0,2 C 76 % 1014,3 hPa 0,0 mm 0,0 km/h (0 Bft) S 180 0 min -3,3 C 0,0 km/h (0 Bft)
25.03.2016 03:45 0,6 C 0,4 C 75 % 1014,3 hPa 0,0 mm 0,0 km/h (0 Bft) O-NO 67 0 min -3,3 C 0,0 km/h (0 Bft)
25.03.2016 03:50 0,6 C 0,4 C 77 % 1014,2 hPa 0,0 mm 0,0 km/h (0 Bft) O-SO 112 0 min -3,0 C 0,0 km/h (0 Bft)
25.03.2016 03:55 0,5 C 0,4 C 75 % 1014,2 hPa 0,0 mm 0,0 km/h (0 Bft) O-SO 112 0 min -3,4 C 0,0 km/h (0 Bft)
25.03.2016 03:58 0,5 C 0,5 C 76 % 1014,2 hPa 0,0 mm 0,0 km/h (0 Bft) O-NO 67 0 min -3,2 C 0,0 km/h (0 Bft)
25.03.2016 04:01 0,5 C 0,5 C 76 % 1014,2 hPa 0,0 mm 0,0 km/h (0 Bft) O-NO 67 0 min -3,2 C 0,0 km/h (0 Bft)
25.03.2016 04:05 0,6 C 0,6 C 76 % 1014,2 hPa 0,0 mm 0,0 km/h (0 Bft) N-NO 22 0 min -3,1 C 0,0 km/h (0 Bft)
25.03.2016 04:10 0,6 C 0,5 C 78 % 1014,2 hPa 0,0 mm 0,0 km/h (0 Bft) NO 45 0 min -2,8 C 0,0 km/h (0 Bft)
25.03.2016 04:15 0,6 C 0,5 C 76 % 1014,2 hPa 0,0 mm 0,0 km/h (0 Bft) O-NO 67 0 min -3,1 C 0,0 km/h (0 Bft)
25.03.2016 04:20 0,6 C 0,5 C 76 % 1014,2 hPa 0,0 mm 0,0 km/h (0 Bft) O-NO 67 0 min -3,1 C 0,0 km/h (0 Bft)
25.03.2016 04:25 0,6 C 0,5 C 76 % 1014,2 hPa 0,0 mm 0,0 km/h (0 Bft) N-NO 22 0 min -3,1 C 0,0 km/h (0 Bft)
25.03.2016 04:30 0,6 C 0,5 C 76 % 1014,1 hPa 0,0 mm 0,0 km/h (0 Bft) O-NO 67 0 min -3,1 C 0,0 km/h (0 Bft)
25.03.2016 04:35 0,7 C 0,5 C 78 % 1014,1 hPa 0,0 mm 0,0 km/h (0 Bft) SO 135 0 min -2,7 C 0,0 km/h (0 Bft)
25.03.2016 04:40 0,7 C 0,6 C 76 % 1014,1 hPa 0,0 mm 0,0 km/h (0 Bft) O-NO 67 0 min -3,0 C 0,0 km/h (0 Bft)
25.03.2016 04:45 0,7 C 0,5 C 78 % 1014,1 hPa 0,0 mm 0,0 km/h (0 Bft) NO 45 0 min -2,7 C 4,5 km/h (1 Bft)
25.03.2016 04:50 0,8 C 0,7 C 77 % 1014,1 hPa 0,0 mm 0,9 km/h (0 Bft) O-SO 112 0 min -2,8 C 0,0 km/h (0 Bft)
25.03.2016 04:55 0,8 C 0,6 C 78 % 1014,1 hPa 0,0 mm 0,9 km/h (0 Bft) O-SO 112 0 min -2,6 C 0,0 km/h (0 Bft)
25.03.2016 05:00 0,8 C 0,7 C 77 % 1014,1 hPa 0,0 mm 0,3 km/h (0 Bft) SO 135 0 min -2,8 C 0,0 km/h (0 Bft)
25.03.2016 05:05 1,0 C 0,9 C 77 % 1014,1 hPa 0,0 mm 0,3 km/h (0 Bft) N-NW 337 0 min -2,6 C 0,0 km/h (0 Bft)
25.03.2016 05:10 0,9 C 0,7 C 78 % 1013,9 hPa 0,0 mm 0,3 km/h (0 Bft) NO 45 0 min -2,5 C 0,0 km/h (0 Bft)
25.03.2016 05:15 0,8 C 0,7 C 77 % 1013,9 hPa 0,0 mm 0,3 km/h (0 Bft) NO 45 0 min -2,8 C 0,0 km/h (0 Bft)
25.03.2016 05:20 0,8 C 0,7 C 78 % 1013,9 hPa 0,0 mm 0,0 km/h (0 Bft) NO 45 0 min -2,6 C 0,0 km/h (0 Bft)
25.03.2016 05:25 0,8 C 0,7 C 77 % 1013,9 hPa 0,0 mm 0,3 km/h (0 Bft) N-NO 22 0 min -2,8 C 0,0 km/h (0 Bft)
25.03.2016 05:30 0,8 C 0,7 C 77 % 1013,9 hPa 0,0 mm 0,3 km/h (0 Bft) N-NW 337 0 min -2,8 C 0,0 km/h (0 Bft)
25.03.2016 05:35 0,8 C 0,6 C 79 % 1013,9 hPa 0,0 mm 0,0 km/h (0 Bft) NO 45 0 min -2,4 C 0,0 km/h (0 Bft)
25.03.2016 05:40 0,8 C 0,7 C 77 % 1013,9 hPa 0,0 mm 0,0 km/h (0 Bft) O-NO 67 0 min -2,8 C 0,0 km/h (0 Bft)
25.03.2016 05:45 0,8 C 0,7 C 77 % 1013,9 hPa 0,0 mm 0,0 km/h (0 Bft) O-NO 67 0 min -2,8 C 0,0 km/h (0 Bft)
25.03.2016 05:50 0,8 C 0,6 C 79 % 1014,0 hPa 0,0 mm 0,0 km/h (0 Bft) O-NO 67 0 min -2,4 C 0,0 km/h (0 Bft)
25.03.2016 05:55 0,8 C 0,6 C 79 % 1014,0 hPa 0,0 mm 0,0 km/h (0 Bft) S 180 0 min -2,4 C 0,0 km/h (0 Bft)
25.03.2016 06:00 0,8 C 0,7 C 77 % 1014,0 hPa 0,0 mm 0,0 km/h (0 Bft) NW 315 0 min -2,8 C 0,0 km/h (0 Bft)
25.03.2016 06:05 0,8 C 0,7 C 77 % 1014,0 hPa 0,0 mm 0,0 km/h (0 Bft) O-SO 112 0 min -2,8 C 0,0 km/h (0 Bft)
25.03.2016 06:10 0,9 C 0,7 C 79 % 1014,2 hPa 0,0 mm 0,3 km/h (0 Bft) NO 45 0 min -2,3 C 0,0 km/h (0 Bft)
25.03.2016 06:15 0,9 C 1,0 C 77 % 1014,2 hPa 0,0 mm 1,8 km/h (1 Bft) W-SW 247 0 min -2,7 C 3,6 km/h (1 Bft)
25.03.2016 06:20 1,7 C 1,5 C 78 % 1014,2 hPa 0,0 mm 3,9 km/h (1 Bft) W-NW 292 0 min -1,7 C 6,9 km/h (2 Bft)
25.03.2016 06:25 2,2 C 2,0 C 78 % 1014,2 hPa 0,0 mm 5,1 km/h (1 Bft) W-SW 247 0 min -1,2 C 6,9 km/h (2 Bft)
25.03.2016 06:30 2,4 C 2,0 C 77 % 1014,4 hPa 0,0 mm 6,6 km/h (2 Bft) W 270 0 min -1,2 C 11,9 km/h (2 Bft)
25.03.2016 06:35 2,5 C 2,0 C 77 % 1014,4 hPa 0,0 mm 7,5 km/h (2 Bft) O-SO 112 0 min -1,1 C 14,9 km/h (3 Bft)
25.03.2016 06:40 2,6 C 2,2 C 76 % 1014,4 hPa 0,0 mm 6,6 km/h (2 Bft) SW 225 0 min -1,2 C 8,0 km/h (2 Bft)
25.03.2016 06:45 2,6 C 2,3 C 76 % 1014,4 hPa 0,0 mm 6,3 km/h (2 Bft) SW 225 0 min -1,2 C 10,1 km/h (2 Bft)
25.03.2016 06:50 2,6 C 2,3 C 76 % 1014,5 hPa 0,0 mm 6,9 km/h (2 Bft) W-NW 292 0 min -1,2 C 11,0 km/h (2 Bft)
25.03.2016 06:55 2,6 C 2,1 C 75 % 1014,5 hPa 0,0 mm 7,7 km/h (2 Bft) SW 225 0 min -1,4 C 5,1 km/h (1 Bft)
25.03.2016 07:00 2,6 C 2,3 C 76 % 1014,5 hPa 0,0 mm 6,6 km/h (2 Bft) S-SW 202 0 min -1,2 C 3,0 km/h (1 Bft)
25.03.2016 07:02 2,6 C 2,3 C 76 % 1014,5 hPa 0,0 mm 6,6 km/h (2 Bft) S-SW 202 0 min -1,2 C 3,0 km/h (1 Bft)
25.03.2016 07:05 2,6 C 2,2 C 76 % 1014,5 hPa 0,0 mm 6,0 km/h (2 Bft) W 270 0 min -1,2 C 8,0 km/h (2 Bft)
25.03.2016 07:10 2,6 C 2,3 C 76 % 1014,6 hPa 0,0 mm 5,1 km/h (1 Bft) W-SW 247 0 min -1,2 C 6,9 km/h (2 Bft)
25.03.2016 07:15 2,6 C 2,4 C 76 % 1014,6 hPa 0,0 mm 4,8 km/h (1 Bft) W-NW 292 0 min -1,2 C 4,8 km/h (1 Bft)
25.03.2016 07:20 2,6 C 2,4 C 76 % 1014,6 hPa 0,0 mm 4,5 km/h (1 Bft) NW 315 0 min -1,2 C 3,9 km/h (1 Bft)
25.03.2016 07:25 2,5 C 2,3 C 75 % 1014,6 hPa 0,0 mm 5,1 km/h (1 Bft) SW 225 0 min -1,5 C 6,9 km/h (2 Bft)
25.03.2016 07:30 2,5 C 2,4 C 76 % 1014,6 hPa 0,0 mm 5,4 km/h (1 Bft) S 180 0 min -1,3 C 9,8 km/h (2 Bft)
25.03.2016 07:35 2,5 C 2,4 C 76 % 1014,6 hPa 0,0 mm 5,4 km/h (1 Bft) SW 225 0 min -1,3 C 6,6 km/h (2 Bft)
25.03.2016 07:40 2,5 C 2,4 C 76 % 1014,6 hPa 0,0 mm 6,3 km/h (2 Bft) S 180 0 min -1,3 C 3,3 km/h (1 Bft)
25.03.2016 07:45 2,6 C 2,6 C 76 % 1014,6 hPa 0,0 mm 5,7 km/h (1 Bft) SW 225 0 min -1,2 C 8,3 km/h (2 Bft)
25.03.2016 07:50 2,6 C 2,6 C 76 % 1014,6 hPa 0,0 mm 5,7 km/h (1 Bft) SO 135 0 min -1,2 C 5,1 km/h (1 Bft)
25.03.2016 07:55 2,7 C 2,6 C 76 % 1014,6 hPa 0,0 mm 6,6 km/h (2 Bft) W 270 0 min -1,1 C 4,8 km/h (1 Bft)
25.03.2016 08:00 2,7 C 2,9 C 77 % 1014,6 hPa 0,0 mm 5,7 km/h (1 Bft) SW 225 0 min -0,9 C 8,3 km/h (2 Bft)
25.03.2016 08:05 2,7 C 2,9 C 77 % 1014,6 hPa 0,0 mm 6,3 km/h (2 Bft) SW 225 0 min -0,9 C 7,2 km/h (2 Bft)
25.03.2016 08:10 2,7 C 2,9 C 77 % 1014,8 hPa 0,0 mm 6,3 km/h (2 Bft) W-SW 247 0 min -0,9 C 6,3 km/h (2 Bft)
25.03.2016 08:15 2,6 C 2,8 C 77 % 1014,8 hPa 0,0 mm 5,7 km/h (1 Bft) W 270 0 min -1,0 C 5,4 km/h (1 Bft)
25.03.2016 08:20 2,6 C 2,8 C 77 % 1014,8 hPa 0,0 mm 6,0 km/h (2 Bft) S-SW 202 0 min -1,0 C 9,5 km/h (2 Bft)
25.03.2016 08:25 2,7 C 3,0 C 77 % 1014,8 hPa 0,0 mm 4,8 km/h (1 Bft) W 270 0 min -0,9 C 3,6 km/h (1 Bft)
25.03.2016 08:30 2,7 C 3,1 C 78 % 1014,8 hPa 0,0 mm 5,1 km/h (1 Bft) W 270 0 min -0,7 C 8,3 km/h (2 Bft)
25.03.2016 08:35 2,9 C 3,6 C 78 % 1014,8 hPa 0,0 mm 4,2 km/h (1 Bft) W-SW 247 0 min -0,5 C 5,4 km/h (1 Bft)
25.03.2016 08:40 2,9 C 3,6 C 78 % 1014,8 hPa 0,0 mm 4,5 km/h (1 Bft) NW 315 0 min -0,5 C 3,0 km/h (1 Bft)
25.03.2016 08:45 3,1 C 3,7 C 77 % 1014,8 hPa 0,0 mm 4,2 km/h (1 Bft) W-SW 247 0 min -0,5 C 5,1 km/h (1 Bft)
25.03.2016 08:50 3,1 C 3,9 C 77 % 1014,8 hPa 0,0 mm 4,2 km/h (1 Bft) W 270 0 min -0,5 C 8,0 km/h (2 Bft)
25.03.2016 08:55 3,2 C 4,0 C 77 % 1014,8 hPa 0,0 mm 4,5 km/h (1 Bft) W-SW 247 0 min -0,4 C 6,6 km/h (2 Bft)
25.03.2016 09:00 3,2 C 3,6 C 77 % 1014,8 hPa 0,0 mm 6,6 km/h (2 Bft) W 270 0 min -0,4 C 13,1 km/h (3 Bft)
25.03.2016 09:05 3,1 C 3,2 C 78 % 1014,8 hPa 0,0 mm 9,5 km/h (2 Bft) W-NW 292 0 min -0,4 C 21,2 km/h (4 Bft)
25.03.2016 09:10 3,2 C 3,2 C 78 % 1014,7 hPa 0,0 mm 9,8 km/h (2 Bft) W 270 0 min -0,3 C 5,1 km/h (1 Bft)
25.03.2016 09:15 3,2 C 3,4 C 78 % 1014,7 hPa 0,0 mm 8,6 km/h (2 Bft) W-NW 292 0 min -0,3 C 6,0 km/h (2 Bft)
25.03.2016 09:20 3,3 C 3,8 C 78 % 1014,7 hPa 0,0 mm 7,5 km/h (2 Bft) SW 225 0 min -0,2 C 9,8 km/h (2 Bft)
25.03.2016 09:25 3,4 C 4,1 C 78 % 1014,7 hPa 0,0 mm 6,6 km/h (2 Bft) NW 315 0 min -0,1 C 9,5 km/h (2 Bft)
25.03.2016 09:30 3,6 C 4,3 C 78 % 1014,8 hPa 0,0 mm 7,7 km/h (2 Bft) W 270 0 min 0,1 C 11,0 km/h (2 Bft)
25.03.2016 09:35 3,7 C 4,6 C 78 % 1014,8 hPa 0,0 mm 8,6 km/h (2 Bft) S-SW 202 0 min 0,2 C 17,9 km/h (3 Bft)
25.03.2016 09:40 3,7 C 4,4 C 78 % 1014,8 hPa 0,0 mm 9,2 km/h (2 Bft) W 270 0 min 0,2 C 7,2 km/h (2 Bft)
25.03.2016 09:45 3,7 C 4,3 C 78 % 1014,8 hPa 0,0 mm 8,9 km/h (2 Bft) W 270 0 min 0,2 C 5,4 km/h (1 Bft)
25.03.2016 09:50 3,7 C 4,5 C 78 % 1014,8 hPa 0,0 mm 7,2 km/h (2 Bft) W-SW 247 0 min 0,2 C 6,0 km/h (2 Bft)
25.03.2016 09:55 3,8 C 4,8 C 78 % 1014,8 hPa 0,0 mm 6,0 km/h (2 Bft) NW 315 0 min 0,3 C 7,2 km/h (2 Bft)
25.03.2016 10:00 4,1 C 5,1 C 78 % 1014,8 hPa 0,0 mm 5,4 km/h (1 Bft) N-NO 22 0 min 0,6 C 0,0 km/h (0 Bft)
25.03.2016 10:03 4,1 C 5,1 C 78 % 1014,8 hPa 0,0 mm 5,4 km/h (1 Bft) N-NO 22 0 min 0,6 C 0,0 km/h (0 Bft)
25.03.2016 10:05 3,9 C 5,1 C 78 % 1014,8 hPa 0,0 mm 6,3 km/h (2 Bft) W-SW 247 0 min 0,4 C 22,4 km/h (4 Bft)
25.03.2016 10:10 3,9 C 4,8 C 78 % 1014,7 hPa 0,0 mm 8,3 km/h (2 Bft) SW 225 0 min 0,4 C 7,2 km/h (2 Bft)
25.03.2016 10:15 4,1 C 4,7 C 78 % 1014,7 hPa 0,0 mm 8,6 km/h (2 Bft) NW 315 0 min 0,6 C 6,6 km/h (2 Bft)
25.03.2016 10:20 4,1 C 4,8 C 78 % 1014,7 hPa 0,0 mm 8,3 km/h (2 Bft) W 270 0 min 0,6 C 12,5 km/h (3 Bft)
25.03.2016 10:25 4,2 C 4,5 C 78 % 1014,7 hPa 0,0 mm 10,1 km/h (2 Bft) W 270 0 min 0,7 C 22,9 km/h (4 Bft)
25.03.2016 10:30 4,1 C 4,5 C 77 % 1014,6 hPa 0,0 mm 10,4 km/h (2 Bft) NW 315 0 min 0,4 C 7,5 km/h (2 Bft)
25.03.2016 10:35 4,3 C 4,8 C 77 % 1014,6 hPa 0,0 mm 8,9 km/h (2 Bft) NW 315 0 min 0,6 C 9,5 km/h (2 Bft)
25.03.2016 10:40 4,4 C 5,0 C 77 % 1014,6 hPa 0,0 mm 8,6 km/h (2 Bft) W-SW 247 0 min 0,7 C 14,3 km/h (3 Bft)
25.03.2016 10:45 4,5 C 5,2 C 77 % 1014,6 hPa 0,0 mm 8,6 km/h (2 Bft) SW 225 0 min 0,8 C 8,0 km/h (2 Bft)
25.03.2016 10:50 4,5 C 5,3 C 77 % 1014,4 hPa 0,0 mm 8,3 km/h (2 Bft) W-NW 292 0 min 0,8 C 6,0 km/h (2 Bft)
25.03.2016 10:55 4,8 C 5,7 C 77 % 1014,4 hPa 0,0 mm 9,5 km/h (2 Bft) W 270 0 min 1,1 C 18,8 km/h (3 Bft)
25.03.2016 11:00 4,9 C 5,9 C 77 % 1014,4 hPa 0,0 mm 10,7 km/h (2 Bft) NW 315 0 min 1,2 C 10,7 km/h (2 Bft)
25.03.2016 11:05 5,0 C 6,7 C 76 % 1014,4 hPa 0,0 mm 10,1 km/h (2 Bft) W-NW 292 0 min 1,1 C 17,3 km/h (3 Bft)
25.03.2016 11:10 5,0 C 6,8 C 76 % 1014,4 hPa 0,0 mm 10,7 km/h (2 Bft) W 270 0 min 1,1 C 24,4 km/h (4 Bft)
25.03.2016 11:15 5,2 C 6,8 C 75 % 1014,4 hPa 0,0 mm 11,3 km/h (2 Bft) W 270 0 min 1,1 C 16,4 km/h (3 Bft)
25.03.2016 11:20 5,2 C 6,6 C 75 % 1014,4 hPa 0,0 mm 10,4 km/h (2 Bft) W-SW 247 0 min 1,1 C 12,2 km/h (2 Bft)
25.03.2016 11:25 5,4 C 6,8 C 75 % 1014,4 hPa 0,0 mm 8,9 km/h (2 Bft) W-SW 247 0 min 1,3 C 8,0 km/h (2 Bft)
25.03.2016 11:30 5,2 C 7,0 C 74 % 1014,5 hPa 0,0 mm 8,6 km/h (2 Bft) W-SW 247 0 min 1,0 C 9,2 km/h (2 Bft)
25.03.2016 11:35 5,4 C 6,6 C 75 % 1014,5 hPa 0,0 mm 9,8 km/h (2 Bft) W 270 0 min 1,3 C 16,7 km/h (3 Bft)
25.03.2016 11:40 5,4 C 6,7 C 75 % 1014,5 hPa 0,0 mm 8,9 km/h (2 Bft) NW 315 0 min 1,3 C 6,3 km/h (2 Bft)
25.03.2016 11:45 5,2 C 6,8 C 75 % 1014,5 hPa 0,0 mm 6,3 km/h (2 Bft) W-SW 247 0 min 1,1 C 4,2 km/h (1 Bft)
25.03.2016 11:50 5,2 C 6,6 C 75 % 1014,5 hPa 0,0 mm 5,4 km/h (1 Bft) W-SW 247 0 min 1,1 C 10,7 km/h (2 Bft)
25.03.2016 11:55 5,1 C 6,4 C 75 % 1014,5 hPa 0,0 mm 6,6 km/h (2 Bft) SW 225 0 min 1,0 C 12,8 km/h (3 Bft)
25.03.2016 12:00 5,1 C 6,1 C 75 % 1014,5 hPa 0,0 mm 7,2 km/h (2 Bft) W 270 0 min 1,0 C 5,1 km/h (1 Bft)
25.03.2016 12:05 5,0 C 5,5 C 76 % 1014,5 hPa 0,0 mm 8,3 km/h (2 Bft) W-NW 292 0 min 1,1 C 9,2 km/h (2 Bft)
25.03.2016 12:10 5,0 C 5,5 C 76 % 1014,2 hPa 0,0 mm 9,2 km/h (2 Bft) W 270 0 min 1,1 C 8,6 km/h (2 Bft)
25.03.2016 12:15 4,8 C 5,5 C 76 % 1014,2 hPa 0,7 mm 8,3 km/h (2 Bft) W-NW 292 0 min 0,9 C 18,5 km/h (3 Bft)
25.03.2016 12:20 4,7 C 5,1 C 76 % 1014,2 hPa 0,0 mm 8,3 km/h (2 Bft) W 270 0 min 0,8 C 15,5 km/h (3 Bft)
25.03.2016 12:25 4,7 C 4,8 C 77 % 1014,2 hPa 0,0 mm 8,6 km/h (2 Bft) W 270 0 min 1,0 C 7,5 km/h (2 Bft)
25.03.2016 12:30 4,7 C 4,9 C 77 % 1014,1 hPa 0,0 mm 7,5 km/h (2 Bft) W-NW 292 0 min 1,0 C 8,6 km/h (2 Bft)
25.03.2016 12:35 4,7 C 5,0 C 77 % 1014,1 hPa 0,0 mm 7,2 km/h (2 Bft) W-SW 247 0 min 1,0 C 11,3 km/h (2 Bft)
25.03.2016 12:40 4,8 C 5,2 C 77 % 1014,1 hPa 0,0 mm 7,5 km/h (2 Bft) W-NW 292 0 min 1,1 C 10,1 km/h (2 Bft)
25.03.2016 12:45 4,7 C 5,3 C 78 % 1014,1 hPa 0,0 mm 7,7 km/h (2 Bft) W-SW 247 0 min 1,2 C 11,3 km/h (2 Bft)
25.03.2016 12:50 4,7 C 5,1 C 78 % 1014,1 hPa 0,0 mm 8,6 km/h (2 Bft) W 270 0 min 1,2 C 14,3 km/h (3 Bft)
25.03.2016 12:55 4,8 C 5,1 C 78 % 1014,1 hPa 0,0 mm 9,2 km/h (2 Bft) W-SW 247 0 min 1,3 C 15,2 km/h (3 Bft)
25.03.2016 13:00 4,9 C 5,2 C 78 % 1014,1 hPa 0,0 mm 8,9 km/h (2 Bft) W 270 0 min 1,4 C 15,2 km/h (3 Bft)
25.03.2016 13:03 4,8 C 5,2 C 78 % 1014,1 hPa 0,0 mm 8,9 km/h (2 Bft) NW 315 0 min 1,3 C 9,2 km/h (2 Bft)
25.03.2016 13:04 4,8 C 5,2 C 78 % 1014,1 hPa 0,0 mm 8,9 km/h (2 Bft) NW 315 0 min 1,3 C 9,2 km/h (2 Bft)
25.03.2016 13:05 4,8 C 5,2 C 78 % 1014,1 hPa 0,0 mm 8,9 km/h (2 Bft) NW 315 0 min 1,3 C 9,2 km/h (2 Bft)
25.03.2016 13:10 4,9 C 5,2 C 78 % 1014,0 hPa 0,0 mm 9,2 km/h (2 Bft) W 270 0 min 1,4 C 10,7 km/h (2 Bft)
25.03.2016 13:15 4,9 C 5,3 C 78 % 1014,0 hPa 0,0 mm 8,6 km/h (2 Bft) W 270 0 min 1,4 C 14,6 km/h (3 Bft)
25.03.2016 13:20 4,9 C 5,2 C 78 % 1014,0 hPa 0,0 mm 9,2 km/h (2 Bft) W 270 0 min 1,4 C 16,4 km/h (3 Bft)
25.03.2016 13:25 5,0 C 5,5 C 78 % 1014,0 hPa 0,0 mm 8,3 km/h (2 Bft) W-SW 247 0 min 1,5 C 8,0 km/h (2 Bft)
25.03.2016 13:30 5,0 C 5,5 C 78 % 1014,1 hPa 0,0 mm 7,7 km/h (2 Bft) W 270 0 min 1,5 C 11,9 km/h (2 Bft)
25.03.2016 13:35 4,9 C 5,1 C 79 % 1014,1 hPa 0,0 mm 9,2 km/h (2 Bft) W 270 0 min 1,6 C 8,0 km/h (2 Bft)
25.03.2016 13:40 5,0 C 5,3 C 78 % 1014,1 hPa 0,0 mm 9,2 km/h (2 Bft) W 270 0 min 1,5 C 10,7 km/h (2 Bft)
25.03.2016 13:45 4,9 C 5,2 C 79 % 1014,1 hPa 0,7 mm 8,3 km/h (2 Bft) W-SW 247 0 min 1,6 C 8,0 km/h (2 Bft)
25.03.2016 13:50 4,8 C 4,9 C 79 % 1013,9 hPa 0,0 mm 8,6 km/h (2 Bft) S 180 0 min 1,5 C 10,7 km/h (2 Bft)
25.03.2016 13:55 4,6 C 4,7 C 79 % 1013,9 hPa 0,0 mm 8,6 km/h (2 Bft) W-SW 247 0 min 1,3 C 8,6 km/h (2 Bft)
25.03.2016 14:00 4,6 C 4,7 C 79 % 1013,9 hPa 0,0 mm 8,0 km/h (2 Bft) S 180 0 min 1,3 C 6,3 km/h (2 Bft)
25.03.2016 14:05 4,6 C 4,6 C 79 % 1013,9 hPa 0,0 mm 8,3 km/h (2 Bft) W-NW 292 0 min 1,3 C 13,7 km/h (3 Bft)
25.03.2016 14:10 4,6 C 4,6 C 79 % 1013,8 hPa 0,0 mm 8,3 km/h (2 Bft) W 270 0 min 1,3 C 3,9 km/h (1 Bft)
25.03.2016 14:15 4,7 C 5,0 C 79 % 1013,8 hPa 0,0 mm 6,3 km/h (2 Bft) S-SW 202 0 min 1,4 C 6,6 km/h (2 Bft)
25.03.2016 14:20 4,7 C 5,1 C 79 % 1013,8 hPa 0,0 mm 5,1 km/h (1 Bft) W 270 0 min 1,4 C 12,2 km/h (2 Bft)
25.03.2016 14:25 4,7 C 5,0 C 79 % 1013,8 hPa 0,0 mm 5,7 km/h (1 Bft) W-SW 247 0 min 1,4 C 7,5 km/h (2 Bft)
25.03.2016 14:30 4,6 C 4,9 C 79 % 1013,6 hPa 0,0 mm 6,3 km/h (2 Bft) W 270 0 min 1,3 C 7,2 km/h (2 Bft)
25.03.2016 14:35 4,6 C 4,8 C 80 % 1013,6 hPa 0,0 mm 6,0 km/h (2 Bft) W 270 0 min 1,5 C 4,8 km/h (1 Bft)
25.03.2016 14:40 4,6 C 4,7 C 80 % 1013,6 hPa 0,7 mm 6,6 km/h (2 Bft) O-SO 112 0 min 1,5 C 14,3 km/h (3 Bft)
25.03.2016 14:45 4,6 C 4,7 C 80 % 1013,6 hPa 0,0 mm 6,9 km/h (2 Bft) W-SW 247 0 min 1,5 C 8,0 km/h (2 Bft)
25.03.2016 14:50 4,7 C 5,1 C 80 % 1013,4 hPa 0,0 mm 5,7 km/h (1 Bft) W-NW 292 0 min 1,6 C 5,7 km/h (1 Bft)
25.03.2016 14:55 4,8 C 5,3 C 80 % 1013,4 hPa 0,0 mm 3,6 km/h (1 Bft) W-SW 247 0 min 1,6 C 0,0 km/h (0 Bft)
25.03.2016 15:00 4,8 C 5,3 C 80 % 1013,4 hPa 0,0 mm 5,4 km/h (1 Bft) W-SW 247 0 min 1,6 C 13,4 km/h (3 Bft)
25.03.2016 15:05 4,8 C 4,9 C 80 % 1013,4 hPa 0,0 mm 6,9 km/h (2 Bft) W 270 0 min 1,6 C 9,2 km/h (2 Bft)
25.03.2016 15:10 4,8 C 4,8 C 80 % 1013,6 hPa 0,0 mm 7,2 km/h (2 Bft) W 270 0 min 1,6 C 8,0 km/h (2 Bft)
25.03.2016 15:15 4,7 C 4,7 C 80 % 1013,6 hPa 0,0 mm 6,6 km/h (2 Bft) W 270 0 min 1,6 C 4,2 km/h (1 Bft)
25.03.2016 15:20 4,7 C 4,8 C 80 % 1013,6 hPa 0,0 mm 5,7 km/h (1 Bft) NW 315 0 min 1,6 C 9,2 km/h (2 Bft)
25.03.2016 15:25 4,6 C 4,4 C 80 % 1013,6 hPa 0,7 mm 7,2 km/h (2 Bft) W-SW 247 0 min 1,5 C 25,0 km/h (4 Bft)
25.03.2016 15:30 4,6 C 4,2 C 80 % 1013,6 hPa 0,0 mm 9,8 km/h (2 Bft) W 270 0 min 1,5 C 10,7 km/h (2 Bft)
25.03.2016 15:35 4,5 C 4,0 C 81 % 1013,6 hPa 0,0 mm 11,6 km/h (2 Bft) W-SW 247 0 min 1,5 C 25,3 km/h (4 Bft)
25.03.2016 15:40 4,4 C 3,9 C 80 % 1013,6 hPa 0,0 mm 9,8 km/h (2 Bft) W-NW 292 0 min 1,3 C 6,9 km/h (2 Bft)
25.03.2016 15:45 4,3 C 3,7 C 83 % 1013,6 hPa 0,0 mm 9,8 km/h (2 Bft) W-SW 247 0 min 1,7 C 15,5 km/h (3 Bft)
25.03.2016 15:50 4,2 C 3,6 C 81 % 1013,5 hPa 0,0 mm 11,0 km/h (2 Bft) W 270 0 min 1,2 C 16,4 km/h (3 Bft)
25.03.2016 15:55 4,2 C 3,5 C 83 % 1013,5 hPa 0,0 mm 10,4 km/h (2 Bft) W 270 0 min 1,6 C 28,0 km/h (4 Bft)
25.03.2016 16:00 4,1 C 3,5 C 84 % 1013,5 hPa 0,7 mm 9,8 km/h (2 Bft) W-SW 247 0 min 1,6 C 9,8 km/h (2 Bft)
25.03.2016 16:03 3,9 C 3,4 C 81 % 1013,5 hPa 0,0 mm 10,4 km/h (2 Bft) SW 225 0 min 0,9 C 14,3 km/h (3 Bft)
25.03.2016 16:05 3,9 C 3,4 C 81 % 1013,5 hPa 0,0 mm 10,4 km/h (2 Bft) SW 225 0 min 0,9 C 14,3 km/h (3 Bft)
25.03.2016 16:10 3,9 C 3,3 C 84 % 1013,5 hPa 0,0 mm 9,8 km/h (2 Bft) W-SW 247 0 min 1,4 C 4,5 km/h (1 Bft)
25.03.2016 16:15 3,8 C 3,4 C 81 % 1013,5 hPa 0,0 mm 8,0 km/h (2 Bft) W-NW 292 0 min 0,8 C 10,7 km/h (2 Bft)
25.03.2016 16:20 3,8 C 3,5 C 82 % 1013,5 hPa 0,0 mm 6,6 km/h (2 Bft) W 270 0 min 1,0 C 16,4 km/h (3 Bft)
25.03.2016 16:25 3,8 C 3,4 C 85 % 1013,5 hPa 0,7 mm 6,9 km/h (2 Bft) W-SW 247 0 min 1,5 C 9,8 km/h (2 Bft)
25.03.2016 16:30 3,7 C 3,3 C 82 % 1013,2 hPa 0,0 mm 8,3 km/h (2 Bft) W 270 0 min 0,9 C 4,8 km/h (1 Bft)
25.03.2016 16:35 3,7 C 3,4 C 82 % 1013,2 hPa 0,0 mm 7,5 km/h (2 Bft) W-SW 247 0 min 0,9 C 11,3 km/h (2 Bft)
25.03.2016 16:40 3,7 C 3,2 C 85 % 1013,2 hPa 0,0 mm 8,0 km/h (2 Bft) W-SW 247 0 min 1,4 C 19,1 km/h (3 Bft)
25.03.2016 16:45 3,7 C 3,1 C 85 % 1013,2 hPa 0,0 mm 8,9 km/h (2 Bft) W-NW 292 0 min 1,4 C 31,3 km/h (5 Bft)
25.03.2016 16:50 3,7 C 3,1 C 86 % 1013,2 hPa 0,0 mm 9,2 km/h (2 Bft) NW 315 0 min 1,6 C 8,3 km/h (2 Bft)
25.03.2016 16:55 3,7 C 2,9 C 86 % 1013,2 hPa 0,0 mm 11,0 km/h (2 Bft) W-NW 292 0 min 1,6 C 11,3 km/h (2 Bft)
25.03.2016 17:00 3,7 C 2,8 C 86 % 1013,2 hPa 0,7 mm 13,1 km/h (3 Bft) SW 225 0 min 1,6 C 14,6 km/h (3 Bft)
25.03.2016 17:05 3,7 C 2,8 C 86 % 1013,2 hPa 0,0 mm 14,0 km/h (3 Bft) NW 315 0 min 1,6 C 13,7 km/h (3 Bft)
25.03.2016 17:10 3,7 C 2,9 C 86 % 1013,2 hPa 0,0 mm 11,9 km/h (2 Bft) W-SW 247 0 min 1,6 C 6,9 km/h (2 Bft)
25.03.2016 17:15 3,6 C 2,9 C 86 % 1013,2 hPa 0,0 mm 10,1 km/h (2 Bft) W-NW 292 0 min 1,5 C 8,6 km/h (2 Bft)
25.03.2016 17:20 3,6 C 3,0 C 86 % 1013,2 hPa 0,0 mm 8,9 km/h (2 Bft) W 270 0 min 1,5 C 13,1 km/h (3 Bft)
25.03.2016 17:25 3,6 C 3,2 C 86 % 1013,2 hPa 0,0 mm 6,9 km/h (2 Bft) W-SW 247 0 min 1,5 C 8,6 km/h (2 Bft)
25.03.2016 17:30 3,5 C 3,3 C 82 % 1013,3 hPa 0,0 mm 6,0 km/h (2 Bft) W-SW 247 0 min 0,7 C 5,1 km/h (1 Bft)
25.03.2016 17:35 3,5 C 3,4 C 82 % 1013,3 hPa 0,0 mm 4,5 km/h (1 Bft) O-SO 112 0 min 0,7 C 6,3 km/h (2 Bft)
25.03.2016 17:40 3,5 C 3,3 C 82 % 1013,3 hPa 0,0 mm 5,7 km/h (1 Bft) W 270 0 min 0,7 C 8,3 km/h (2 Bft)
25.03.2016 17:45 3,5 C 3,1 C 86 % 1013,3 hPa 0,0 mm 6,9 km/h (2 Bft) SW 225 0 min 1,4 C 13,7 km/h (3 Bft)
25.03.2016 17:50 3,5 C 3,0 C 87 % 1013,6 hPa 0,7 mm 7,5 km/h (2 Bft) W 270 0 min 1,5 C 10,1 km/h (2 Bft)
25.03.2016 17:55 3,4 C 2,7 C 87 % 1013,6 hPa 0,0 mm 10,4 km/h (2 Bft) W 270 0 min 1,4 C 8,0 km/h (2 Bft)
25.03.2016 18:00 3,4 C 2,6 C 87 % 1013,6 hPa 0,0 mm 11,6 km/h (2 Bft) NW 315 0 min 1,4 C 17,0 km/h (3 Bft)
25.03.2016 18:05 3,4 C 2,5 C 87 % 1013,6 hPa 0,0 mm 12,5 km/h (3 Bft) NW 315 0 min 1,4 C 20,6 km/h (4 Bft)
25.03.2016 18:10 3,4 C 2,5 C 87 % 1013,9 hPa 0,0 mm 12,2 km/h (2 Bft) W 270 0 min 1,4 C 11,3 km/h (2 Bft)
25.03.2016 18:15 3,3 C 2,5 C 87 % 1013,9 hPa 0,0 mm 11,0 km/h (2 Bft) W-NW 292 0 min 1,3 C 16,4 km/h (3 Bft)
25.03.2016 18:20 3,3 C 2,6 C 87 % 1013,9 hPa 0,0 mm 10,4 km/h (2 Bft) W-SW 247 0 min 1,3 C 10,7 km/h (2 Bft)
25.03.2016 18:25 3,3 C 2,6 C 87 % 1013,9 hPa 0,0 mm 10,1 km/h (2 Bft) S 180 0 min 1,3 C 11,3 km/h (2 Bft)
25.03.2016 18:30 3,3 C 2,5 C 87 % 1014,0 hPa 0,0 mm 10,4 km/h (2 Bft) S 180 0 min 1,3 C 12,8 km/h (3 Bft)
25.03.2016 18:35 3,3 C 2,4 C 87 % 1014,0 hPa 0,0 mm 12,8 km/h (3 Bft) W 270 0 min 1,3 C 40,2 km/h (6 Bft)
25.03.2016 18:40 3,3 C 2,4 C 87 % 1014,0 hPa 0,0 mm 12,8 km/h (3 Bft) W-NW 292 0 min 1,3 C 13,4 km/h (3 Bft)
25.03.2016 18:45 3,3 C 2,3 C 87 % 1014,0 hPa 0,0 mm 14,0 km/h (3 Bft) W-SW 247 0 min 1,3 C 13,7 km/h (3 Bft)
25.03.2016 18:50 3,3 C 2,5 C 87 % 1014,1 hPa 0,0 mm 14,6 km/h (3 Bft) W-SW 247 0 min 1,3 C 25,3 km/h (4 Bft)
25.03.2016 18:55 3,2 C 2,4 C 87 % 1014,1 hPa 0,0 mm 15,5 km/h (3 Bft) W 270 0 min 1,2 C 9,5 km/h (2 Bft)
25.03.2016 19:00 3,2 C 2,4 C 87 % 1014,1 hPa 0,0 mm 14,9 km/h (3 Bft) W-SW 247 0 min 1,2 C 17,9 km/h (3 Bft)
25.03.2016 19:03 3,2 C 2,4 C 87 % 1014,1 hPa 0,0 mm 16,4 km/h (3 Bft) W 270 0 min 1,2 C 30,1 km/h (5 Bft)
25.03.2016 19:06 3,2 C 2,1 C 87 % 1014,1 hPa 0,0 mm 16,4 km/h (3 Bft) W 270 0 min 1,2 C 30,1 km/h (5 Bft)
25.03.2016 19:10 3,2 C 2,3 C 87 % 1014,2 hPa 0,0 mm 17,3 km/h (3 Bft) W 270 0 min 1,2 C 21,5 km/h (4 Bft)
25.03.2016 19:15 3,1 C 2,2 C 87 % 1014,2 hPa 0,7 mm 18,5 km/h (3 Bft) W 270 0 min 1,2 C 24,4 km/h (4 Bft)
25.03.2016 19:20 3,1 C 2,2 C 87 % 1014,2 hPa 0,0 mm 16,7 km/h (3 Bft) W 270 0 min 1,2 C 24,4 km/h (4 Bft)
25.03.2016 19:25 3,0 C 1,9 C 87 % 1014,2 hPa 0,0 mm 16,4 km/h (3 Bft) W-SW 247 0 min 1,1 C 32,5 km/h (5 Bft)
25.03.2016 19:30 3,0 C 2,2 C 88 % 1014,4 hPa 0,0 mm 17,3 km/h (3 Bft) S 180 0 min 1,2 C 20,3 km/h (4 Bft)
25.03.2016 19:35 2,9 C 1,8 C 88 % 1014,4 hPa 0,0 mm 17,6 km/h (3 Bft) W-SW 247 0 min 1,1 C 19,1 km/h (3 Bft)
25.03.2016 19:40 2,9 C 2,1 C 88 % 1014,4 hPa 0,0 mm 18,2 km/h (3 Bft) W-SW 247 0 min 1,1 C 21,8 km/h (4 Bft)
25.03.2016 19:45 2,8 C 2,0 C 88 % 1014,4 hPa 0,0 mm 15,2 km/h (3 Bft) W 270 0 min 1,0 C 15,2 km/h (3 Bft)
25.03.2016 19:50 2,8 C 1,9 C 89 % 1014,3 hPa 0,7 mm 12,8 km/h (3 Bft) W-SW 247 0 min 1,2 C 21,5 km/h (4 Bft)
25.03.2016 19:55 2,8 C 2,0 C 89 % 1014,3 hPa 0,0 mm 11,3 km/h (2 Bft) SW 225 0 min 1,2 C 12,5 km/h (3 Bft)
25.03.2016 20:00 2,8 C 2,0 C 89 % 1014,3 hPa 0,0 mm 11,6 km/h (2 Bft) W-SW 247 0 min 1,2 C 14,6 km/h (3 Bft)
25.03.2016 20:05 2,8 C 2,2 C 89 % 1014,3 hPa 0,0 mm 8,9 km/h (2 Bft) W-SW 247 0 min 1,2 C 7,5 km/h (2 Bft)
25.03.2016 20:10 2,8 C 2,3 C 89 % 1014,4 hPa 0,0 mm 7,7 km/h (2 Bft) W-SW 247 0 min 1,2 C 13,7 km/h (3 Bft)
25.03.2016 20:15 2,8 C 2,1 C 89 % 1014,4 hPa 0,0 mm 10,1 km/h (2 Bft) W-SW 247 0 min 1,2 C 9,8 km/h (2 Bft)
25.03.2016 20:20 2,8 C 2,0 C 89 % 1014,4 hPa 0,0 mm 11,6 km/h (2 Bft) W-SW 247 0 min 1,2 C 12,5 km/h (3 Bft)
25.03.2016 20:25 2,9 C 2,1 C 89 % 1014,4 hPa 0,7 mm 10,4 km/h (2 Bft) W-NW 292 0 min 1,3 C 11,3 km/h (2 Bft)
25.03.2016 20:30 2,9 C 2,2 C 89 % 1014,6 hPa 0,0 mm 9,5 km/h (2 Bft) W-SW 247 0 min 1,3 C 6,9 km/h (2 Bft)
25.03.2016 20:35 2,9 C 2,3 C 89 % 1014,6 hPa 0,0 mm 8,9 km/h (2 Bft) W 270 0 min 1,3 C 6,3 km/h (2 Bft)
25.03.2016 20:40 2,9 C 2,3 C 89 % 1014,6 hPa 0,0 mm 8,3 km/h (2 Bft) W 270 0 min 1,3 C 8,3 km/h (2 Bft)
25.03.2016 20:45 2,9 C 2,5 C 89 % 1014,6 hPa 0,0 mm 6,9 km/h (2 Bft) W-NW 292 0 min 1,3 C 7,2 km/h (2 Bft)
25.03.2016 20:50 2,8 C 2,4 C 89 % 1014,7 hPa 0,7 mm 6,9 km/h (2 Bft) W-NW 292 0 min 1,2 C 8,9 km/h (2 Bft)
25.03.2016 20:55 2,9 C 2,2 C 89 % 1014,7 hPa 0,0 mm 9,5 km/h (2 Bft) SW 225 0 min 1,3 C 8,0 km/h (2 Bft)
25.03.2016 21:00 2,8 C 2,2 C 89 % 1014,7 hPa 0,0 mm 9,2 km/h (2 Bft) W-SW 247 0 min 1,2 C 4,8 km/h (1 Bft)
25.03.2016 21:05 2,8 C 2,3 C 89 % 1014,7 hPa 0,0 mm 8,0 km/h (2 Bft) W-SW 247 0 min 1,2 C 9,2 km/h (2 Bft)
25.03.2016 21:10 2,8 C 2,3 C 89 % 1015,1 hPa 0,0 mm 7,5 km/h (2 Bft) N 360 0 min 1,2 C 10,4 km/h (2 Bft)
25.03.2016 21:15 2,9 C 2,2 C 90 % 1015,1 hPa 0,0 mm 9,2 km/h (2 Bft) W 270 0 min 1,4 C 20,3 km/h (4 Bft)
25.03.2016 21:20 2,9 C 2,2 C 90 % 1015,1 hPa 0,0 mm 9,8 km/h (2 Bft) W-NW 292 0 min 1,4 C 10,4 km/h (2 Bft)
25.03.2016 21:25 2,9 C 2,2 C 90 % 1015,1 hPa 0,7 mm 9,8 km/h (2 Bft) W-SW 247 0 min 1,4 C 12,5 km/h (3 Bft)
25.03.2016 21:30 2,9 C 2,2 C 90 % 1015,0 hPa 0,0 mm 10,7 km/h (2 Bft) W-SW 247 0 min 1,4 C 19,4 km/h (3 Bft)
25.03.2016 21:35 2,9 C 2,0 C 91 % 1015,0 hPa 0,0 mm 13,1 km/h (3 Bft) W-NW 292 0 min 1,6 C 13,1 km/h (3 Bft)
25.03.2016 21:40 2,9 C 2,2 C 91 % 1015,0 hPa 0,0 mm 14,3 km/h (3 Bft) W 270 0 min 1,6 C 10,1 km/h (2 Bft)
25.03.2016 21:45 2,9 C 2,1 C 91 % 1015,0 hPa 0,0 mm 11,3 km/h (2 Bft) W 270 0 min 1,6 C 24,7 km/h (4 Bft)
25.03.2016 21:50 2,9 C 2,1 C 91 % 1015,2 hPa 0,0 mm 11,6 km/h (2 Bft) W 270 0 min 1,6 C 20,0 km/h (4 Bft)
25.03.2016 21:55 2,9 C 2,0 C 91 % 1015,2 hPa 0,0 mm 13,4 km/h (3 Bft) NW 315 0 min 1,6 C 21,5 km/h (4 Bft)
25.03.2016 22:00 2,9 C 2,2 C 91 % 1015,2 hPa 0,7 mm 14,3 km/h (3 Bft) S-SW 202 0 min 1,6 C 19,7 km/h (3 Bft)
25.03.2016 22:05 2,9 C 2,1 C 91 % 1015,2 hPa 0,0 mm 15,2 km/h (3 Bft) W-NW 292 0 min 1,6 C 30,4 km/h (5 Bft)
25.03.2016 22:07 2,9 C 1,9 C 91 % 1015,2 hPa 0,0 mm 15,2 km/h (3 Bft) W-NW 292 0 min 1,6 C 30,4 km/h (5 Bft)
25.03.2016 22:10 2,8 C 1,8 C 91 % 1015,4 hPa 0,0 mm 15,2 km/h (3 Bft) W 270 0 min 1,5 C 37,0 km/h (5 Bft)
25.03.2016 22:15 2,8 C 1,8 C 91 % 1015,4 hPa 0,0 mm 15,2 km/h (3 Bft) SO 135 0 min 1,5 C 13,1 km/h (3 Bft)
25.03.2016 22:20 2,8 C 2,1 C 91 % 1015,4 hPa 0,0 mm 14,3 km/h (3 Bft) SW 225 0 min 1,5 C 14,3 km/h (3 Bft)
25.03.2016 22:25 2,9 C 2,0 C 91 % 1015,4 hPa 0,7 mm 12,8 km/h (3 Bft) NW 315 0 min 1,6 C 17,6 km/h (3 Bft)
25.03.2016 22:30 2,9 C 2,1 C 91 % 1015,6 hPa 0,0 mm 11,6 km/h (2 Bft) W-SW 247 0 min 1,6 C 11,3 km/h (2 Bft)
25.03.2016 22:35 2,9 C 2,0 C 91 % 1015,6 hPa 0,0 mm 12,5 km/h (3 Bft) W-SW 247 0 min 1,6 C 14,0 km/h (3 Bft)
25.03.2016 22:40 2,9 C 2,0 C 91 % 1015,6 hPa 0,0 mm 13,7 km/h (3 Bft) W 270 0 min 1,6 C 25,6 km/h (4 Bft)
25.03.2016 22:45 2,9 C 2,0 C 91 % 1015,6 hPa 0,0 mm 12,8 km/h (3 Bft) W 270 0 min 1,6 C 17,3 km/h (3 Bft)
25.03.2016 22:50 3,0 C 2,1 C 90 % 1015,6 hPa 0,7 mm 12,8 km/h (3 Bft) W-SW 247 0 min 1,5 C 15,5 km/h (3 Bft)
25.03.2016 22:55 3,0 C 2,2 C 90 % 1015,6 hPa 0,0 mm 11,9 km/h (2 Bft) SW 225 0 min 1,5 C 11,0 km/h (2 Bft)
25.03.2016 23:00 3,0 C 2,2 C 90 % 1015,6 hPa 0,0 mm 11,6 km/h (2 Bft) S 180 0 min 1,5 C 17,6 km/h (3 Bft)
25.03.2016 23:05 3,0 C 2,4 C 90 % 1015,6 hPa 0,0 mm 9,5 km/h (2 Bft) O-NO 67 0 min 1,5 C 7,5 km/h (2 Bft)
25.03.2016 23:10 3,0 C 2,4 C 90 % 1015,6 hPa 0,0 mm 9,5 km/h (2 Bft) W 270 0 min 1,5 C 14,0 km/h (3 Bft)
25.03.2016 23:15 3,1 C 2,3 C 90 % 1015,6 hPa 0,0 mm 11,0 km/h (2 Bft) W-SW 247 0 min 1,6 C 20,0 km/h (4 Bft)
25.03.2016 23:20 3,1 C 2,3 C 90 % 1015,6 hPa 0,0 mm 11,9 km/h (2 Bft) W 270 0 min 1,6 C 20,3 km/h (4 Bft)
25.03.2016 23:25 3,2 C 2,5 C 90 % 1015,6 hPa 0,0 mm 15,2 km/h (3 Bft) W-NW 292 0 min 1,7 C 16,1 km/h (3 Bft)
25.03.2016 23:30 3,2 C 2,5 C 90 % 1015,8 hPa 0,0 mm 15,8 km/h (3 Bft) SW 225 0 min 1,7 C 11,9 km/h (2 Bft)
25.03.2016 23:35 3,2 C 2,3 C 90 % 1015,8 hPa 0,0 mm 13,7 km/h (3 Bft) SW 225 0 min 1,7 C 16,4 km/h (3 Bft)
25.03.2016 23:40 3,1 C 2,2 C 90 % 1015,8 hPa 0,0 mm 13,1 km/h (3 Bft) W 270 0 min 1,6 C 19,4 km/h (3 Bft)
25.03.2016 23:45 3,1 C 2,3 C 90 % 1015,8 hPa 0,7 mm 12,5 km/h (3 Bft) W-SW 247 0 min 1,6 C 6,0 km/h (2 Bft)
25.03.2016 23:50 3,1 C 2,2 C 90 % 1015,8 hPa 0,0 mm 12,8 km/h (3 Bft) SW 225 0 min 1,6 C 16,7 km/h (3 Bft)
25.03.2016 23:55 3,1 C 2,2 C 90 % 1015,8 hPa 0,0 mm 14,0 km/h (3 Bft) SW 225 0 min 1,6 C 9,5 km/h (2 Bft)
_ Min-Zeit 00:05 00:00 03:00 17:25 - 06:05 - - - 00:05 14:55
Minimum _ -0,5 C -1,0 C 73 % 1013,2 hPa - 0,0 km/h (0 Bft) - - - -4,0 C 0,0 km/h (0 Bft)
_ Max-Zeit 11:40 11:30 22:45 23:55 23:45 19:15 - - 23:55 23:35 18:35
Maximum _ 5,4 C 7,0 C 91 % 1015,8 hPa 0,7 mm 18,5 km/h
W (3 Bft)
- - 0 min 1,7 C 40,2 km/h
W (6 Bft)
Durchschnitt _ 2,9 C 2,7 C 81 % 1014,3 hPa #11,7 mm 7,1 km/h (2 Bft) W - #0 min. -0,1 C 9,3 km/h (2 Bft)